createdAt,value
2023-01-10T04:30:56.102Z,5.40
2023-01-10T04:41:11.633Z,5.30
2023-01-10T04:51:28.016Z,5.30
2023-01-10T05:01:43.264Z,5.30
2023-01-10T05:11:58.535Z,5.20
2023-01-10T05:22:14.144Z,5.20
2023-01-10T05:32:29.864Z,5.10
2023-01-10T05:42:44.967Z,5.10
2023-01-10T05:53:04.413Z,5.00
2023-01-10T06:03:19.839Z,4.90
2023-01-10T06:13:35.016Z,4.90
2023-01-10T06:23:50.708Z,4.80
2023-01-10T06:34:06.037Z,4.80
2023-01-10T06:44:21.375Z,5.20
2023-01-10T06:54:37.032Z,5.20
2023-01-10T07:04:52.603Z,5.20
2023-01-10T07:15:08.409Z,5.30
2023-01-10T07:25:24.915Z,5.30
2023-01-10T07:35:40.107Z,5.00
2023-01-10T07:45:58.768Z,4.90
2023-01-10T07:56:13.867Z,4.70
2023-01-10T08:06:29.287Z,5.00
2023-01-10T08:16:44.660Z,5.10
2023-01-10T08:27:00.399Z,5.10
2023-01-10T08:37:15.637Z,5.40
2023-01-10T08:47:31.076Z,5.20
2023-01-10T08:57:46.593Z,5.70
2023-01-10T09:08:03.177Z,5.60
2023-01-10T09:18:21.279Z,5.60
2023-01-10T09:28:37.045Z,5.90
2023-01-10T09:38:52.373Z,6.10
2023-01-10T09:49:16.578Z,6.30
2023-01-10T09:59:42.860Z,6.30
2023-01-10T10:09:58.237Z,6.40
2023-01-10T10:20:47.636Z,7.20
2023-01-10T10:31:22.105Z,7.10
2023-01-10T10:41:42.732Z,7.10
2023-01-10T10:51:59.259Z,7.10
2023-01-10T11:02:29.820Z,7.20
2023-01-10T11:12:50.985Z,7.00
2023-01-10T11:23:07.594Z,6.80
2023-01-10T11:33:28.167Z,6.90
2023-01-10T11:43:43.428Z,7.10
2023-01-10T11:54:11.014Z,7.70
2023-01-10T12:04:29.031Z,7.90
2023-01-10T12:14:45.330Z,7.40
2023-01-10T12:25:05.111Z,7.20
2023-01-10T12:35:43.472Z,7.30
2023-01-10T12:46:25.172Z,7.80
2023-01-10T12:56:47.812Z,7.80
2023-01-10T13:07:04.881Z,8.00
2023-01-10T13:17:32.228Z,8.20
2023-01-10T13:27:56.393Z,8.00
2023-01-10T13:38:21.880Z,7.80
2023-01-10T13:48:37.472Z,7.80
2023-01-10T13:59:11.376Z,7.50
2023-01-10T14:09:37.765Z,7.30
2023-01-10T14:20:07.970Z,7.20
2023-01-10T14:30:34.248Z,7.20
2023-01-10T14:40:52.465Z,7.00
2023-01-10T14:51:27.516Z,6.90
2023-01-10T15:01:43.157Z,6.80
2023-01-10T15:12:01.576Z,6.60
2023-01-10T15:22:26.671Z,6.50
2023-01-10T15:32:42.861Z,6.40
2023-01-10T15:43:17.080Z,6.50
2023-01-10T15:54:05.681Z,6.50
2023-01-10T16:04:21.171Z,6.40
2023-01-10T16:14:37.808Z,6.30
2023-01-10T16:24:52.937Z,6.40
2023-01-10T16:35:08.605Z,6.30
2023-01-10T16:45:23.884Z,6.30
2023-01-10T16:55:42.335Z,6.30
2023-01-10T17:05:59.435Z,6.30
2023-01-10T17:16:19.338Z,6.40
2023-01-10T17:26:34.634Z,6.40
2023-01-10T17:36:49.889Z,6.40
2023-01-10T17:47:05.209Z,6.40
2023-01-10T17:57:20.929Z,6.30
2023-01-10T18:07:36.337Z,6.40
2023-01-10T18:17:52.442Z,6.60
2023-01-10T18:28:07.541Z,6.60
2023-01-10T18:38:23.117Z,6.60
2023-01-10T18:48:38.842Z,6.70
2023-01-10T18:58:55.420Z,6.70
2023-01-10T19:09:10.787Z,6.60
2023-01-10T19:19:26.245Z,6.50
2023-01-10T19:29:42.328Z,6.40
2023-01-10T19:39:57.604Z,6.30
2023-01-10T19:50:12.988Z,6.10
2023-01-10T20:00:28.838Z,5.90
2023-01-10T20:10:44.078Z,5.70
2023-01-10T20:21:02.886Z,5.50
2023-01-10T20:31:20.914Z,5.60
2023-01-10T20:41:37.184Z,5.60
2023-01-10T20:51:54.225Z,5.80
2023-01-10T21:02:11.363Z,5.90
2023-01-10T21:12:27.759Z,6.00
2023-01-10T21:22:42.949Z,6.00
2023-01-10T21:33:00.128Z,6.10
2023-01-10T21:43:15.630Z,6.10
2023-01-10T21:53:30.979Z,6.10
2023-01-10T22:03:46.505Z,6.10
2023-01-10T22:14:01.675Z,6.20
2023-01-10T22:24:17.026Z,6.40
